Time;durP1;ratioP1;P1;durP2;ratioP2;P2;SDS_P1;SDS_P2;PMS_P1;PMS_P2;Temp;Humidity;BMP_temperature;BMP_pressure;BME280_temperature;BME280_humidity;BME280_pressure;Samples;Min_cycle;Max_cycle;Signal;HPM_P1;HPM_P2
2023/12/15 00:00:28;;;;;;;34.60;16.02;;;;;;;4.19;100.00;101971.81;5035277;28;20038;-82
2023/12/15 00:02:54;;;;;;;30.58;15.88;;;;;;;4.11;100.00;101963.72;5031679;28;20136;-82
2023/12/15 00:05:22;;;;;;;28.85;16.02;;;;;;;4.10;100.00;101963.69;5014580;28;20091;-83
2023/12/15 00:07:49;;;;;;;33.53;17.63;;;;;;;4.07;100.00;101959.25;5012259;28;20064;-84
2023/12/15 00:10:17;;;;;;;30.08;15.75;;;;;;;4.03;100.00;101964.25;5024064;28;20055;-83
2023/12/15 00:12:44;;;;;;;31.45;16.30;;;;;;;3.95;100.00;101962.25;5017982;28;20133;-83
2023/12/15 00:15:11;;;;;;;32.30;16.88;;;;;;;3.86;100.00;101961.91;5017765;28;21455;-83
2023/12/15 00:17:38;;;;;;;28.40;15.60;;;;;;;3.78;100.00;101966.78;5014084;28;20046;-84
2023/12/15 00:20:05;;;;;;;30.08;16.17;;;;;;;3.68;100.00;101963.72;5029980;28;20052;-84
2023/12/15 00:22:32;;;;;;;28.98;15.45;;;;;;;3.61;100.00;101968.69;5027788;28;20048;-84
2023/12/15 00:24:58;;;;;;;33.80;18.30;;;;;;;3.58;100.00;101967.66;5015458;28;20061;-84
2023/12/15 00:27:33;;;;;;;38.13;17.50;;;;;;;3.50;100.00;101964.75;5027673;28;20453;-84
2023/12/15 00:30:00;;;;;;;31.92;15.55;;;;;;;3.47;100.00;101977.59;5032093;28;20053;-84
2023/12/15 00:32:31;;;;;;;30.75;14.98;;;;;;;3.40;100.00;101980.72;5020614;28;20069;-85
2023/12/15 00:35:01;;;;;;;31.13;16.42;;;;;;;3.36;100.00;101978.84;5018706;28;20049;-84
2023/12/15 00:37:28;;;;;;;40.13;17.70;;;;;;;3.33;100.00;101982.19;5016111;28;20405;-84
2023/12/15 00:39:55;;;;;;;32.53;16.42;;;;;;;3.28;100.00;101986.28;5016572;28;20045;-84
2023/12/15 00:42:34;;;;;;;29.98;16.63;;;;;;;3.22;100.00;101989.50;5015906;28;20071;-84
2023/12/15 00:45:01;;;;;;;36.03;18.15;;;;;;;3.21;100.00;101989.44;5021715;28;20054;-83
2023/12/15 00:47:27;;;;;;;34.25;18.35;;;;;;;3.19;100.00;102004.00;5031102;28;20132;-85
2023/12/15 00:49:54;;;;;;;33.72;15.35;;;;;;;3.19;100.00;102004.00;5028459;28;20473;-84
2023/12/15 00:52:21;;;;;;;39.30;17.27;;;;;;;3.18;100.00;102008.31;5031460;28;20050;-83
2023/12/15 00:54:49;;;;;;;33.35;16.45;;;;;;;3.20;100.00;102009.22;5030254;28;20053;-84
2023/12/15 00:57:16;;;;;;;39.03;17.27;;;;;;;3.24;100.00;102011.13;5033075;28;20043;-84
2023/12/15 00:59:46;;;;;;;34.55;17.13;;;;;;;3.26;100.00;102018.94;5017089;28;20109;-83
2023/12/15 01:02:13;;;;;;;30.17;15.40;;;;;;;3.26;100.00;102018.94;5013304;28;20080;-83
2023/12/15 01:04:42;;;;;;;31.83;15.77;;;;;;;3.30;100.00;102024.34;5034077;28;20079;-83
2023/12/15 01:07:11;;;;;;;29.92;15.82;;;;;;;3.37;100.00;102022.91;5015026;28;20049;-83
2023/12/15 01:09:47;;;;;;;36.50;18.08;;;;;;;3.41;100.00;102029.97;5034721;28;20041;-83
2023/12/15 01:12:14;;;;;;;30.40;17.45;;;;;;;3.43;100.00;102038.69;5018329;28;20053;-82
2023/12/15 01:14:41;;;;;;;32.90;16.20;;;;;;;3.47;100.00;102042.31;5019478;28;20046;-84
2023/12/15 01:17:11;;;;;;;36.08;17.45;;;;;;;3.53;100.00;102044.25;5033309;28;20041;-82
2023/12/15 01:19:46;;;;;;;29.05;16.20;;;;;;;3.57;100.00;102040.97;5033586;28;20045;-84
2023/12/15 01:22:13;;;;;;;30.33;16.30;;;;;;;3.61;100.00;102046.38;5038147;28;20064;-83
2023/12/15 01:24:39;;;;;;;35.05;16.42;;;;;;;3.65;100.00;102052.56;5015001;28;20054;-84
2023/12/15 01:27:06;;;;;;;33.53;16.67;;;;;;;3.68;100.00;102042.31;5016732;28;20046;-84
2023/12/15 01:29:33;;;;;;;31.50;16.60;;;;;;;3.69;100.00;102043.19;5026404;28;20399;-84
2023/12/15 01:32:00;;;;;;;31.05;15.55;;;;;;;3.79;100.00;102041.06;5019863;28;20061;-82
2023/12/15 01:34:26;;;;;;;33.47;16.75;;;;;;;3.83;100.00;102044.66;5015014;28;20413;-82
2023/12/15 01:36:56;;;;;;;30.70;15.00;;;;;;;3.87;100.00;102041.38;5014890;28;20088;-83
2023/12/15 01:39:23;;;;;;;29.77;15.60;;;;;;;3.89;100.00;102034.53;5011198;28;20901;-83
2023/12/15 01:41:49;;;;;;;32.75;15.75;;;;;;;3.91;100.00;102045.88;5030808;28;20040;-82
2023/12/15 01:44:19;;;;;;;34.40;16.90;;;;;;;3.90;100.00;102041.50;5012459;28;20045;-83
2023/12/15 01:46:46;;;;;;;30.25;15.05;;;;;;;3.92;100.00;102042.44;5034925;28;21409;-82
2023/12/15 01:49:13;;;;;;;31.60;17.02;;;;;;;3.94;100.00;102047.69;5023408;28;20071;-82
2023/12/15 01:51:40;;;;;;;34.40;16.48;;;;;;;3.94;100.00;102045.09;5018421;28;20045;-83
2023/12/15 01:54:07;;;;;;;30.83;16.95;;;;;;;3.93;100.00;102049.38;5019143;28;20045;-82
2023/12/15 01:56:37;;;;;;;26.95;15.25;;;;;;;3.99;100.00;102053.94;5016973;28;20585;-82
2023/12/15 01:59:05;;;;;;;33.42;16.52;;;;;;;4.01;100.00;102043.66;5010057;28;20044;-83
2023/12/15 02:01:32;;;;;;;31.00;14.82;;;;;;;4.05;100.00;102056.78;5028481;28;20064;-83
2023/12/15 02:03:59;;;;;;;30.90;16.58;;;;;;;4.03;100.00;102052.34;5032556;28;20105;-81
2023/12/15 02:06:28;;;;;;;34.97;16.23;;;;;;;4.06;100.00;102052.50;5015779;28;20379;-83
2023/12/15 02:08:55;;;;;;;30.38;16.27;;;;;;;4.09;100.00;102055.19;5014799;28;20214;-82
2023/12/15 02:11:22;;;;;;;27.73;13.68;;;;;;;4.07;100.00;102052.53;5030646;28;20052;-84
2023/12/15 02:13:49;;;;;;;31.33;14.73;;;;;;;4.08;100.00;102053.41;5013644;28;20391;-83
2023/12/15 02:16:15;;;;;;;31.92;14.60;;;;;;;4.07;100.00;102051.69;5017668;28;20410;-84
2023/12/15 02:18:42;;;;;;;28.95;14.55;;;;;;;4.11;100.00;102049.25;5008873;28;20269;-82
2023/12/15 02:21:09;;;;;;;26.85;14.98;;;;;;;4.12;100.00;102053.63;5010357;28;20050;-83
2023/12/15 02:23:39;;;;;;;30.63;14.25;;;;;;;4.16;100.00;102053.72;5014286;28;20149;-84
2023/12/15 02:26:08;;;;;;;27.42;14.52;;;;;;;4.19;100.00;102041.78;5015392;28;20141;-81
2023/12/15 02:28:37;;;;;;;26.60;13.48;;;;;;;4.23;100.00;102050.56;5012396;28;20057;-84
2023/12/15 02:31:04;;;;;;;27.70;15.50;;;;;;;4.22;100.00;102049.66;5012820;28;20051;-84
2023/12/15 02:33:40;;;;;;;25.90;13.65;;;;;;;4.20;100.00;102045.25;5034168;28;20068;-83
2023/12/15 02:36:10;;;;;;;27.20;14.68;;;;;;;4.17;100.00;102053.78;5032973;28;20057;-83
2023/12/15 02:38:36;;;;;;;26.65;15.02;;;;;;;4.17;100.00;102047.72;5026384;28;20052;-83
2023/12/15 02:41:06;;;;;;;28.00;15.18;;;;;;;4.16;100.00;102056.31;5015023;28;20041;-81
2023/12/15 02:43:35;;;;;;;24.88;13.10;;;;;;;4.16;100.00;102057.22;5027579;28;20080;-84
2023/12/15 02:46:01;;;;;;;23.70;12.25;;;;;;;4.17;100.00;102053.78;5031458;28;20071;-84
2023/12/15 02:48:37;;;;;;;26.48;13.77;;;;;;;4.18;100.00;102054.69;5024539;28;20060;-82
2023/12/15 02:51:11;;;;;;;27.77;15.38;;;;;;;4.16;100.00;102053.72;5034193;28;20057;-84
2023/12/15 02:53:40;;;;;;;28.83;13.80;;;;;;;4.14;100.00;102056.25;5011762;28;20054;-82
2023/12/15 02:56:08;;;;;;;25.75;13.48;;;;;;;4.20;100.00;102068.56;5026493;28;20080;-83
2023/12/15 02:58:38;;;;;;;26.13;13.75;;;;;;;4.20;100.00;102058.19;5015238;28;20035;-84
2023/12/15 03:01:05;;;;;;;27.63;14.45;;;;;;;4.20;100.00;102060.78;5032731;28;20061;-84
2023/12/15 03:03:33;;;;;;;28.55;15.10;;;;;;;4.11;100.00;102061.34;5042983;28;20046;-82
2023/12/15 03:06:08;;;;;;;28.58;13.85;;;;;;;4.16;100.00;102057.22;5033665;28;20068;-82
2023/12/15 03:08:34;;;;;;;30.75;14.48;;;;;;;4.14;100.00;102062.31;5031595;28;20056;-83
2023/12/15 03:11:03;;;;;;;29.25;14.65;;;;;;;4.19;100.00;102061.66;5022003;28;20052;-82
2023/12/15 03:13:34;;;;;;;28.80;14.43;;;;;;;4.20;100.00;102066.88;5037084;28;20068;-82
2023/12/15 03:16:12;;;;;;;27.30;13.52;;;;;;;4.14;100.00;102061.44;5032933;28;20751;-82
2023/12/15 03:18:40;;;;;;;28.17;13.57;;;;;;;4.16;100.00;102069.28;5031320;28;20049;-83
2023/12/15 03:21:07;;;;;;;23.83;14.55;;;;;;;4.17;100.00;102060.69;5016710;28;20096;-82
2023/12/15 03:23:34;;;;;;;30.50;15.70;;;;;;;4.16;100.00;102061.50;5015932;28;20057;-82
2023/12/15 03:26:00;;;;;;;28.35;14.63;;;;;;;4.17;100.00;102060.69;5017052;28;20117;-82
2023/12/15 03:28:27;;;;;;;32.33;14.82;;;;;;;4.17;100.00;102065.88;5015559;28;20053;-82
2023/12/15 03:30:54;;;;;;;26.27;13.00;;;;;;;4.23;100.00;102069.59;5017838;28;20053;-83
2023/12/15 03:33:21;;;;;;;28.00;15.05;;;;;;;4.21;100.00;102067.75;5019013;28;20533;-83
2023/12/15 03:35:48;;;;;;;33.20;14.63;;;;;;;4.21;100.00;102067.75;5015766;28;20038;-84
2023/12/15 03:38:19;;;;;;;23.20;13.20;;;;;;;4.23;100.00;102072.19;5033255;28;20176;-82
2023/12/15 03:40:46;;;;;;;29.15;14.02;;;;;;;4.23;100.00;102073.91;5028093;28;20045;-82
2023/12/15 03:43:21;;;;;;;29.92;14.63;;;;;;;4.24;100.00;102076.53;5017994;28;20096;-83
2023/12/15 03:45:48;;;;;;;26.20;13.63;;;;;;;4.23;100.00;102079.97;5018916;28;20084;-82
2023/12/15 03:48:18;;;;;;;30.17;15.38;;;;;;;4.24;100.00;102083.44;5015189;28;20518;-84
2023/12/15 03:51:09;;;;;;;25.88;13.85;;;;;;;4.24;100.00;102080.84;5038392;28;20061;-83
2023/12/15 03:53:38;;;;;;;26.67;14.43;;;;;;;4.25;100.00;102080.00;5032414;28;20072;-83
2023/12/15 03:56:08;;;;;;;23.88;12.52;;;;;;;4.29;100.00;102077.63;5034823;28;20041;-84
2023/12/15 03:58:39;;;;;;;27.38;14.60;;;;;;;4.28;100.00;102085.34;5015260;28;20300;-82
2023/12/15 04:01:06;;;;;;;26.25;14.65;;;;;;;4.22;100.00;102083.38;5032034;28;20676;-82
2023/12/15 04:03:32;;;;;;;28.20;14.30;;;;;;;4.18;100.00;102086.66;5032529;28;20503;-84
2023/12/15 04:06:02;;;;;;;29.15;16.05;;;;;;;4.24;100.00;102088.63;5029487;28;20049;-84
2023/12/15 04:08:34;;;;;;;32.63;15.27;;;;;;;4.20;100.00;102095.41;5015615;28;20053;-82
2023/12/15 04:11:01;;;;;;;28.52;14.63;;;;;;;4.21;100.00;102097.16;5034980;28;20069;-83
2023/12/15 04:13:33;;;;;;;31.85;15.35;;;;;;;4.22;100.00;102093.72;5017513;28;20117;-83
2023/12/15 04:15:59;;;;;;;29.42;15.38;;;;;;;4.23;100.00;102098.09;5019064;28;20052;-83
2023/12/15 04:18:29;;;;;;;29.17;14.52;;;;;;;4.25;100.00;102099.06;5013979;28;20057;-83
2023/12/15 04:20:57;;;;;;;34.53;16.23;;;;;;;4.19;100.00;102101.41;5018583;28;20041;-82
2023/12/15 04:23:28;;;;;;;31.85;16.90;;;;;;;4.21;100.00;102099.75;5028842;28;20053;-84
2023/12/15 04:25:58;;;;;;;34.88;15.60;;;;;;;4.23;100.00;102103.28;5013943;28;20062;-84
2023/12/15 04:28:29;;;;;;;32.15;14.77;;;;;;;4.23;100.00;102105.00;5023431;28;20064;-83
2023/12/15 04:30:56;;;;;;;32.58;15.88;;;;;;;4.22;100.00;102108.41;5014945;28;20111;-81
2023/12/15 04:33:24;;;;;;;33.42;16.52;;;;;;;4.23;100.00;102105.88;5011757;28;20435;-83
2023/12/15 04:35:51;;;;;;;33.28;16.75;;;;;;;4.22;100.00;102103.22;5024166;28;21897;-83
2023/12/15 04:38:18;;;;;;;31.70;16.90;;;;;;;4.20;100.00;102098.00;5023194;28;21142;-83
2023/12/15 04:40:46;;;;;;;36.10;16.15;;;;;;;4.28;100.00;102106.06;5027971;28;20041;-84
2023/12/15 04:43:12;;;;;;;37.80;19.67;;;;;;;4.33;100.00;102104.56;5031162;28;20068;-84
2023/12/15 04:45:42;;;;;;;34.03;17.45;;;;;;;4.39;100.00;102109.09;5024466;28;20045;-82
2023/12/15 04:48:09;;;;;;;43.03;18.45;;;;;;;4.42;100.00;102112.69;5022634;28;20049;-83
2023/12/15 04:50:39;;;;;;;35.78;17.00;;;;;;;4.46;100.00;102109.41;5021277;28;20124;-84
2023/12/15 04:53:07;;;;;;;33.97;16.60;;;;;;;4.43;100.00;102113.56;5006735;28;20059;-81
2023/12/15 04:55:33;;;;;;;33.60;17.50;;;;;;;4.40;100.00;102121.22;5020574;28;20045;-83
2023/12/15 04:58:02;;;;;;;29.65;16.25;;;;;;;4.43;100.00;102118.75;5018284;28;20041;-83
2023/12/15 05:00:29;;;;;;;36.45;17.67;;;;;;;4.48;100.00;102109.44;5018742;28;20053;-83
2023/12/15 05:02:56;;;;;;;36.20;16.08;;;;;;;4.51;100.00;102119.06;5023567;28;20833;-83
2023/12/15 05:05:25;;;;;;;41.65;17.58;;;;;;;4.40;100.00;102119.50;5009466;28;20041;-82
2023/12/15 05:07:53;;;;;;;36.35;17.42;;;;;;;4.47;100.00;102115.44;5008397;28;20052;-83
2023/12/15 05:10:20;;;;;;;36.95;18.45;;;;;;;4.50;100.00;102115.59;5015430;28;20060;-83
2023/12/15 05:12:51;;;;;;;37.15;19.40;;;;;;;4.54;100.00;102114.88;5021689;28;20196;-83
2023/12/15 05:15:18;;;;;;;40.00;19.88;;;;;;;4.57;100.00;102108.94;5024652;28;20107;-83
2023/12/15 05:17:45;;;;;;;40.00;18.60;;;;;;;4.56;100.00;102109.75;5019575;28;20057;-83
2023/12/15 05:20:12;;;;;;;39.42;18.42;;;;;;;4.58;100.00;102106.41;5003516;28;20425;-83
2023/12/15 05:22:39;;;;;;;35.28;17.00;;;;;;;4.62;100.00;102103.09;5026293;28;20057;-83
2023/12/15 05:25:06;;;;;;;42.45;18.13;;;;;;;4.57;100.00;102116.72;5006115;28;20509;-83
2023/12/15 05:27:33;;;;;;;38.00;17.33;;;;;;;4.56;100.00;102110.66;5017301;28;20057;-82
2023/12/15 05:30:00;;;;;;;31.70;15.80;;;;;;;4.60;100.00;102117.72;5006235;28;20045;-83
2023/12/15 05:32:27;;;;;;;38.38;17.40;;;;;;;4.61;100.00;102131.56;5023022;28;20140;-81
2023/12/15 05:34:56;;;;;;;39.53;18.58;;;;;;;4.61;100.00;102132.44;5021414;28;20050;-81
2023/12/15 05:37:23;;;;;;;32.58;16.13;;;;;;;4.67;100.00;102144.78;5017687;28;20056;-82
2023/12/15 05:39:49;;;;;;;37.85;18.65;;;;;;;4.71;100.00;102146.69;5004693;28;20049;-83
2023/12/15 05:42:17;;;;;;;38.40;17.75;;;;;;;4.71;100.00;102151.88;5021701;28;20045;-82
2023/12/15 05:44:43;;;;;;;34.97;16.63;;;;;;;4.74;100.00;102151.97;5017922;28;20188;-83
2023/12/15 05:47:13;;;;;;;41.60;17.67;;;;;;;4.63;100.00;102154.16;5015800;28;20042;-81
2023/12/15 05:49:41;;;;;;;33.20;17.23;;;;;;;4.68;100.00;102156.03;5029972;28;20107;-82
2023/12/15 05:52:09;;;;;;;34.45;17.33;;;;;;;4.75;100.00;102158.94;5030158;28;20103;-84
2023/12/15 05:54:39;;;;;;;40.00;18.95;;;;;;;4.76;100.00;102165.91;5029889;28;20311;-84
2023/12/15 05:57:09;;;;;;;38.70;17.08;;;;;;;4.77;100.00;102165.09;5013620;28;20071;-83
2023/12/15 05:59:35;;;;;;;36.88;18.00;;;;;;;4.72;100.00;102165.69;5012268;28;20072;-83
2023/12/15 06:02:02;;;;;;;33.78;17.27;;;;;;;4.73;100.00;102173.56;5024681;28;20629;-81
2023/12/15 06:04:28;;;;;;;36.40;17.73;;;;;;;4.74;100.00;102171.84;5009292;28;20057;-82
2023/12/15 06:06:55;;;;;;;34.58;17.52;;;;;;;4.72;100.00;102177.00;5005609;28;20110;-83
2023/12/15 06:09:21;;;;;;;30.92;14.52;;;;;;;4.71;100.00;102171.75;5022384;28;20037;-82
2023/12/15 06:11:48;;;;;;;37.70;16.55;;;;;;;4.80;100.00;102174.69;5012520;28;20068;-83
2023/12/15 06:14:18;;;;;;;30.88;15.55;;;;;;;4.79;100.00;102175.50;5016650;28;20053;-83
2023/12/15 06:16:44;;;;;;;32.45;17.95;;;;;;;4.84;100.00;102162.69;5031705;28;20120;-82
2023/12/15 06:19:17;;;;;;;28.00;15.02;;;;;;;4.92;100.00;102179.47;5027682;28;20042;-83
2023/12/15 06:21:44;;;;;;;27.65;14.55;;;;;;;4.97;100.00;102178.81;5029085;28;20048;-83
2023/12/15 06:24:11;;;;;;;30.17;15.18;;;;;;;4.99;100.00;102176.28;5031127;28;20116;-83
2023/12/15 06:29:18;;;;;;;25.10;12.75;;;;;;;5.07;100.00;102190.47;5011098;28;20053;-83
2023/12/15 06:31:52;;;;;;;28.17;16.05;;;;;;;5.11;100.00;102192.34;5017591;28;20053;-82
2023/12/15 06:34:18;;;;;;;28.83;14.10;;;;;;;5.09;100.00;102193.97;5034299;28;20037;-82
2023/12/15 06:36:46;;;;;;;26.67;14.50;;;;;;;5.12;100.00;102196.72;5028738;28;20112;-83
2023/12/15 06:39:13;;;;;;;21.95;13.43;;;;;;;5.08;100.00;102196.53;5014598;28;20049;-82
2023/12/15 06:41:40;;;;;;;24.02;13.23;;;;;;;5.11;100.00;102199.22;5020906;28;20049;-82
2023/12/15 06:44:06;;;;;;;24.10;11.63;;;;;;;5.10;100.00;102211.31;5018344;28;20053;-83
2023/12/15 06:46:36;;;;;;;23.15;12.00;;;;;;;5.12;100.00;102212.28;5030353;28;20042;-83
2023/12/15 06:49:03;;;;;;;23.27;12.10;;;;;;;5.09;100.00;102208.69;5017754;28;20125;-83
2023/12/15 06:51:30;;;;;;;19.75;10.95;;;;;;;5.06;100.00;102211.13;5017628;28;20084;-84
2023/12/15 06:53:57;;;;;;;20.95;12.55;;;;;;;5.06;100.00;102214.63;5022439;28;20053;-83
2023/12/15 06:56:27;;;;;;;21.63;12.98;;;;;;;5.01;100.00;102208.38;5020262;28;20445;-84
2023/12/15 06:58:54;;;;;;;22.95;12.23;;;;;;;5.08;100.00;102218.16;5031777;28;20041;-85
2023/12/15 07:01:21;;;;;;;24.15;13.13;;;;;;;5.09;100.00;102217.34;5022182;28;20045;-82
2023/12/15 07:03:48;;;;;;;24.80;12.75;;;;;;;5.08;100.00;102218.16;5002394;28;20054;-82
2023/12/15 07:06:22;;;;;;;25.83;14.60;;;;;;;5.09;100.00;102227.72;5008977;28;20056;-82
2023/12/15 07:08:53;;;;;;;22.65;12.85;;;;;;;5.14;100.00;102231.38;5008412;28;20132;-83
2023/12/15 07:11:20;;;;;;;26.77;14.32;;;;;;;5.18;100.00;102235.00;5026944;28;20052;-82
2023/12/15 07:13:47;;;;;;;22.35;12.90;;;;;;;5.23;100.00;102232.59;5004692;28;20554;-81
2023/12/15 07:16:15;;;;;;;25.23;13.88;;;;;;;5.25;100.00;102234.41;5020524;28;20542;-82
2023/12/15 07:18:42;;;;;;;24.13;15.48;;;;;;;5.29;100.00;102227.59;5016246;28;20065;-82
2023/12/15 07:21:10;;;;;;;26.60;14.70;;;;;;;5.30;100.00;102224.19;5016500;28;20046;-82
2023/12/15 07:23:38;;;;;;;30.35;15.38;;;;;;;5.30;100.00;102224.19;5007172;28;20041;-83
2023/12/15 07:26:06;;;;;;;30.38;15.18;;;;;;;5.24;100.00;102231.72;5007181;28;20103;-82
2023/12/15 07:28:33;;;;;;;24.77;14.73;;;;;;;5.29;100.00;102228.50;5009793;28;20064;-80
2023/12/15 07:30:59;;;;;;;34.15;17.10;;;;;;;5.29;100.00;102231.09;5002059;28;20610;-83
2023/12/15 07:33:26;;;;;;;29.70;15.05;;;;;;;5.35;100.00;102237.34;5006450;28;20064;-83
2023/12/15 07:35:52;;;;;;;34.80;17.08;;;;;;;5.36;100.00;102247.81;5006078;28;20140;-83
2023/12/15 07:38:19;;;;;;;34.50;20.05;;;;;;;5.35;100.00;102246.03;5018319;28;20049;-82
2023/12/15 07:40:53;;;;;;;31.90;16.27;;;;;;;5.33;100.00;102246.78;5002156;28;20041;-81
2023/12/15 07:43:22;;;;;;;30.90;16.30;;;;;;;5.35;100.00;102250.34;5006490;28;20045;-83
2023/12/15 07:45:49;;;;;;;35.72;17.92;;;;;;;5.43;100.00;102254.09;5004910;28;20065;-83
2023/12/15 07:48:15;;;;;;;36.13;17.77;;;;;;;5.43;100.00;102254.09;5021704;28;20037;-83
2023/12/15 07:50:42;;;;;;;38.05;18.50;;;;;;;5.47;100.00;102259.50;5007871;28;20058;-82
2023/12/15 07:53:08;;;;;;;37.40;19.25;;;;;;;5.51;100.00;102259.59;5006674;28;20091;-80
2023/12/15 07:55:36;;;;;;;33.58;18.65;;;;;;;5.48;100.00;102262.97;5023920;28;20052;-83
2023/12/15 07:58:05;;;;;;;31.40;16.73;;;;;;;5.51;100.00;102265.66;5001715;28;20076;-82
2023/12/15 08:00:31;;;;;;;36.15;18.30;;;;;;;5.56;100.00;102265.84;5009614;28;20451;-83
2023/12/15 08:02:58;;;;;;;36.60;17.77;;;;;;;5.50;100.00;102268.22;5007809;28;20045;-81
2023/12/15 08:05:24;;;;;;;35.28;18.38;;;;;;;5.47;100.00;102282.88;5006374;28;20132;-83
2023/12/15 08:07:51;;;;;;;39.15;18.77;;;;;;;5.44;100.00;102284.44;5025791;28;20089;-82
2023/12/15 08:10:17;;;;;;;38.47;18.88;;;;;;;5.39;100.00;102283.38;5020185;28;20098;-82
2023/12/15 08:12:47;;;;;;;39.10;18.50;;;;;;;5.39;100.00;102294.66;5020575;28;20046;-81
2023/12/15 08:15:13;;;;;;;35.53;18.08;;;;;;;5.45;100.00;102297.50;5023437;28;20045;-83
2023/12/15 08:17:40;;;;;;;36.20;17.00;;;;;;;5.50;100.00;102301.97;5005482;28;20510;-83
2023/12/15 08:20:14;;;;;;;38.05;19.15;;;;;;;5.55;100.00;102303.03;5026262;28;20037;-82
2023/12/15 08:22:41;;;;;;;39.55;18.10;;;;;;;5.60;100.00;102306.69;5023025;28;20080;-81
2023/12/15 08:25:08;;;;;;;37.70;16.85;;;;;;;5.66;100.00;102309.53;5028505;28;20037;-80
2023/12/15 08:27:39;;;;;;;39.58;18.27;;;;;;;5.64;100.00;102308.59;5011686;28;20053;-82
2023/12/15 08:30:09;;;;;;;37.63;17.30;;;;;;;5.60;100.00;102311.91;5005541;28;20051;-83
2023/12/15 08:32:35;;;;;;;39.33;18.60;;;;;;;5.67;100.00;102319.13;5013419;28;20064;-82
2023/12/15 08:35:02;;;;;;;33.83;17.65;;;;;;;5.76;100.00;102315.94;5040655;28;20053;-84
2023/12/15 08:37:29;;;;;;;36.35;19.70;;;;;;;5.77;100.00;102326.41;5005177;28;20050;-83
2023/12/15 08:39:55;;;;;;;41.03;17.58;;;;;;;5.86;100.00;102327.59;5009727;28;20103;-82
2023/12/15 08:42:22;;;;;;;40.17;19.55;;;;;;;5.95;100.00;102322.72;5021791;28;20073;-83
2023/12/15 08:44:49;;;;;;;35.00;17.00;;;;;;;5.99;100.00;102326.38;5010832;28;20481;-83
2023/12/15 08:47:15;;;;;;;41.95;19.08;;;;;;;6.12;100.00;102332.06;5006037;28;20042;-82
2023/12/15 08:49:43;;;;;;;39.78;18.25;;;;;;;6.16;100.00;102338.25;5034207;28;20057;-83
2023/12/15 08:52:09;;;;;;;35.70;17.15;;;;;;;6.22;100.00;102337.59;5025405;28;20045;-81
2023/12/15 08:54:36;;;;;;;30.83;16.85;;;;;;;6.22;100.00;102335.88;5008228;28;20152;-83
2023/12/15 08:57:03;;;;;;;33.58;15.50;;;;;;;6.26;100.00;102352.50;5003473;28;21111;-83
2023/12/15 08:59:29;;;;;;;38.90;15.52;;;;;;;6.31;100.00;102353.56;5026883;28;20059;-81
2023/12/15 09:01:56;;;;;;;30.13;15.82;;;;;;;6.32;100.00;102350.09;5006631;28;20530;-83
2023/12/15 09:04:22;;;;;;;45.50;16.25;;;;;;;6.29;100.00;102356.06;5007724;28;20049;-81
2023/12/15 09:06:49;;;;;;;31.25;16.42;;;;;;;6.34;100.00;102363.19;5025838;28;20133;-83
2023/12/15 09:09:15;;;;;;;31.10;16.67;;;;;;;6.41;100.00;102372.97;5025243;28;20054;-83
2023/12/15 09:11:43;;;;;;;39.17;15.15;;;;;;;6.37;100.00;102371.97;5008033;28;20910;-81
2023/12/15 09:14:09;;;;;;;36.67;16.25;;;;;;;6.44;100.00;102381.75;5005052;28;20064;-82
2023/12/15 09:16:36;;;;;;;33.55;15.98;;;;;;;6.47;100.00;102394.00;5011122;28;20042;-83
2023/12/15 09:19:03;;;;;;;33.90;16.50;;;;;;;6.51;100.00;102397.59;5007555;28;20049;-83
2023/12/15 09:21:33;;;;;;;33.22;14.40;;;;;;;6.56;100.00;102388.25;5026149;28;20034;-83
2023/12/15 09:24:03;;;;;;;28.55;14.48;;;;;;;6.54;100.00;102395.09;5024872;28;20073;-82
2023/12/15 09:26:30;;;;;;;33.13;16.10;;;;;;;6.54;100.00;102408.09;5010950;28;20107;-83
2023/12/15 09:28:57;;;;;;;33.50;16.55;;;;;;;6.61;100.00;102415.31;5006911;28;20137;-81
2023/12/15 09:31:24;;;;;;;37.40;15.95;;;;;;;6.57;100.00;102419.53;5013158;28;20037;-81
2023/12/15 09:33:50;;;;;;;30.27;16.55;;;;;;;6.59;100.00;102427.38;5023592;28;20050;-82
2023/12/15 09:36:17;;;;;;;38.88;16.90;;;;;;;6.55;100.00;102433.31;5007378;28;20128;-81
2023/12/15 09:38:44;;;;;;;33.45;15.88;;;;;;;6.58;100.00;102439.50;5009022;28;20050;-83
2023/12/15 09:41:10;;;;;;;34.05;16.50;;;;;;;6.60;100.00;102443.03;5023848;28;20045;-81
2023/12/15 09:43:37;;;;;;;35.03;16.30;;;;;;;6.60;100.00;102449.97;5024776;28;20057;-80
2023/12/15 09:46:06;;;;;;;29.80;15.27;;;;;;;6.58;100.00;102464.63;5006575;28;20065;-81
2023/12/15 09:48:34;;;;;;;30.40;15.27;;;;;;;6.54;100.00;102471.44;5025687;28;20121;-82
2023/12/15 09:51:19;;;;;;;38.92;17.38;;;;;;;6.55;100.00;102477.53;5022849;28;20571;-82
2023/12/15 09:53:48;;;;;;;33.78;15.77;;;;;;;6.54;100.00;102487.03;5021003;28;20751;-82
2023/12/15 09:56:25;;;;;;;34.45;16.52;;;;;;;6.55;100.00;102482.75;5005420;28;20041;-82
2023/12/15 09:58:53;;;;;;;36.67;16.55;;;;;;;6.57;100.00;102488.88;5007867;28;20055;-82
2023/12/15 10:01:20;;;;;;;34.63;16.65;;;;;;;6.51;100.00;102492.16;4997105;28;21038;-82
2023/12/15 10:03:48;;;;;;;36.83;17.23;;;;;;;6.54;100.00;102491.38;5012539;28;20053;-82
2023/12/15 10:06:18;;;;;;;35.95;16.65;;;;;;;6.52;100.00;102487.81;5010145;28;20097;-81
2023/12/15 10:08:46;;;;;;;38.78;18.63;;;;;;;6.54;100.00;102489.66;5023924;28;20041;-82
2023/12/15 10:11:13;;;;;;;38.17;17.92;;;;;;;6.52;100.00;102493.00;5029295;28;20034;-83
2023/12/15 10:13:41;;;;;;;35.13;17.90;;;;;;;6.56;100.00;102488.00;5010382;28;20053;-82
2023/12/15 10:16:10;;;;;;;35.47;17.20;;;;;;;6.62;100.00;102489.94;5004995;28;20553;-82
2023/12/15 10:18:38;;;;;;;33.15;17.20;;;;;;;6.67;100.00;102490.13;5009998;28;20053;-81
2023/12/15 10:21:06;;;;;;;32.58;17.15;;;;;;;6.66;100.00;102490.94;5007890;28;20034;-83
2023/12/15 10:23:34;;;;;;;35.17;18.45;;;;;;;6.65;100.00;102486.56;5016871;28;20049;-82
2023/12/15 10:26:06;;;;;;;30.65;15.93;;;;;;;6.70;100.00;102493.72;5023765;28;20456;-83
2023/12/15 10:28:38;;;;;;;34.13;16.42;;;;;;;6.74;100.00;102510.31;5019197;28;20065;-82
2023/12/15 10:31:06;;;;;;;35.92;17.30;;;;;;;6.61;100.00;102504.66;5019886;28;20030;-83
2023/12/15 10:33:34;;;;;;;38.50;17.65;;;;;;;6.68;100.00;102510.13;5025573;28;20136;-83
2023/12/15 10:36:02;;;;;;;37.00;17.13;;;;;;;6.74;100.00;102512.91;5008383;28;20046;-83
2023/12/15 10:38:30;;;;;;;41.40;17.73;;;;;;;6.72;100.00;102512.00;5007134;28;20128;-83
2023/12/15 10:41:04;;;;;;;35.83;17.70;;;;;;;6.80;100.00;102505.34;5006487;28;20042;-81
2023/12/15 10:43:31;;;;;;;;;;;;;;;6.79;100.00;102507.06;4995055;28;20061;-83
2023/12/15 10:45:59;;;;;;;45.88;19.48;;;;;;;6.84;100.00;102511.56;5022904;28;20352;-81
2023/12/15 10:48:28;;;;;;;41.17;19.90;;;;;;;6.83;100.00;102507.16;5002810;28;20121;-82
2023/12/15 10:50:58;;;;;;;43.58;16.25;;;;;;;6.87;100.00;102503.84;5027435;28;20053;-81
2023/12/15 10:53:33;;;;;;;39.75;17.52;;;;;;;6.83;100.00;102500.25;5012697;28;20034;-81
2023/12/15 10:56:00;;;;;;;41.13;18.58;;;;;;;6.85;100.00;102510.72;5011939;28;20406;-80
2023/12/15 10:58:30;;;;;;;42.78;18.90;;;;;;;6.85;100.00;102502.91;5028469;28;20034;-82
2023/12/15 11:00:57;;;;;;;42.05;18.63;;;;;;;6.79;100.00;102512.28;5001707;28;20123;-81
2023/12/15 11:03:25;;;;;;;38.05;17.92;;;;;;;6.77;100.00;102510.44;5027704;28;20112;-82
2023/12/15 11:05:53;;;;;;;39.28;18.30;;;;;;;6.84;100.00;102517.63;5016690;28;20049;-83
2023/12/15 11:08:21;;;;;;;37.42;17.83;;;;;;;6.83;100.00;102509.78;5022083;28;20541;-82
2023/12/15 11:10:58;;;;;;;42.33;18.92;;;;;;;6.87;100.00;102511.66;5015562;28;20065;-81
2023/12/15 11:14:04;;;;;;;41.38;16.33;;;;;;;6.86;100.00;102521.19;5015096;28;20052;-83
2023/12/15 11:16:34;;;;;;;40.53;19.08;;;;;;;6.92;100.00;102526.63;5013261;28;20037;-82